»·PEaware :: UAL201 PHNL-KSLC

UAL201 :: PHNL-KSLC

FLIGHT INFORMATION

Flight Status: Arrived
Operator:
United Airlines
More flights by this operator :: More flights under this callsign
Pilot: Matthew Moss (2702)
Aircraft: BOEING 777-200
(B772)
More flights by this aircraft type
Origin: PHNL Honolulu Intl
United States
Destination: KSLC Salt Lake City Intl
United States
More flights between these airports :: More routes between these airports
Route: VESPA FOT LLC BVL BVL2
File this flight plan on PilotEdge
Remarks: Currently Squawking 3402
Altitude:
(Current/Filed)
410ft
Speed:
(Current/Filed)
487kts
Departed: 31-Jan-17 07:48 PM
Arrived: 31-Jan-17 08:55 PM
Distance/Time
Traveled:
2597nm/1:07
Distance/Time
To Go:
Arrived

Flight Plot

Page will automatically refresh every two minutes.


Map Options




Map Legend


Flown Route
Filed Route
Departure Airport
Arrival Airport
Navaid (VOR, NDB)
Fix

Horizontal Profiles

Position Reports

Time Latitude Longitude Heading Altitude Ground
Speed
31-Jan-17 19:47 40.526317 -122.415549 100 41143ft 533kts
31-Jan-17 19:48 40.509173 -122.221529 100 41140ft 532kts
31-Jan-17 19:49 40.493515 -122.047534 100 41144ft 532kts
31-Jan-17 19:50 40.475738 -121.853629 99 41148ft 541kts
31-Jan-17 19:51 40.457450 -121.657640 100 41151ft 540kts
31-Jan-17 19:52 40.438811 -121.461624 100 41148ft 540kts
31-Jan-17 19:53 40.419924 -121.266570 100 41158ft 540kts
31-Jan-17 19:54 40.400696 -121.071494 100 41161ft 539kts
31-Jan-17 19:55 40.383079 -120.895714 100 41164ft 539kts
31-Jan-17 19:56 40.363229 -120.700870 100 41168ft 538kts
31-Jan-17 19:57 40.343834 -120.513599 100 41189ft 537kts
31-Jan-17 19:58 40.324682 -120.331580 100 41183ft 537kts
31-Jan-17 19:59 40.306101 -120.157628 100 41181ft 536kts
31-Jan-17 20:00 40.285159 -119.964612 100 41183ft 537kts
31-Jan-17 20:01 40.263565 -119.768605 99 41187ft 546kts
31-Jan-17 20:02 40.241650 -119.572824 100 41183ft 544kts
31-Jan-17 20:03 40.219428 -119.377379 100 41186ft 543kts
31-Jan-17 20:04 40.196921 -119.182425 100 41190ft 542kts
31-Jan-17 20:05 40.174079 -118.987281 100 41194ft 542kts
31-Jan-17 20:06 40.151226 -118.792960 100 41197ft 541kts
31-Jan-17 20:07 40.128498 -118.598946 96 41199ft 541kts
31-Jan-17 20:08 40.147234 -118.405141 76 41200ft 540kts
31-Jan-17 20:09 40.174393 -118.231203 78 41198ft 540kts
31-Jan-17 20:10 40.202315 -118.038546 78 41195ft 540kts
31-Jan-17 20:11 40.229952 -117.844917 77 41192ft 545kts
31-Jan-17 20:12 40.257106 -117.649967 77 41191ft 543kts
31-Jan-17 20:13 40.283819 -117.455359 77 41191ft 543kts
31-Jan-17 20:14 40.310251 -117.260229 77 41192ft 543kts
31-Jan-17 20:15 40.336285 -117.065467 77 41196ft 544kts
31-Jan-17 20:16 40.361868 -116.871533 78 41199ft 540kts
31-Jan-17 20:17 40.387160 -116.677144 78 41201ft 541kts
31-Jan-17 20:18 40.412137 -116.482551 78 41203ft 540kts
31-Jan-17 20:19 40.434334 -116.307317 78 41204ft 539kts
31-Jan-17 20:20 40.458576 -116.113375 78 41203ft 539kts
31-Jan-17 20:21 40.482511 -115.919016 77 41205ft 541kts
31-Jan-17 20:22 40.506342 -115.722939 77 41206ft 544kts
31-Jan-17 20:23 40.529879 -115.526302 77 41207ft 543kts
31-Jan-17 20:24 40.552973 -115.330450 78 41210ft 542kts
31-Jan-17 20:25 40.575708 -115.134703 78 41215ft 541kts
31-Jan-17 20:26 40.598062 -114.939272 78 41221ft 540kts
31-Jan-17 20:27 40.616669 -114.774263 78 41228ft 539kts
31-Jan-17 20:28 40.638118 -114.581287 78 40950ft 535kts
31-Jan-17 20:29 40.657325 -114.405901 78 38647ft 532kts
31-Jan-17 20:30 40.678210 -114.212255 79 35792ft 537kts
31-Jan-17 20:31 40.699289 -114.017108 79 32946ft 541kts
31-Jan-17 20:32 40.719794 -113.817508 79 29963ft 560kts
31-Jan-17 20:33 40.727651 -113.615686 89 27341ft 544kts
31-Jan-17 20:34 40.725079 -113.420343 88 24802ft 523kts
31-Jan-17 20:35 40.724882 -113.231026 87 23115ft 507kts
31-Jan-17 20:36 40.724132 -113.049913 88 19968ft 481kts
31-Jan-17 20:37 40.722777 -112.880542 88 17581ft 447kts
31-Jan-17 20:38 40.721740 -112.727830 88 17121ft 394kts
31-Jan-17 20:39 40.720368 -112.601148 88 16997ft 372kts
31-Jan-17 20:40 40.717755 -112.468137 90 16065ft 357kts
31-Jan-17 20:41 40.712866 -112.339140 90 14702ft 345kts
31-Jan-17 20:42 40.708277 -112.214746 90 13123ft 335kts
31-Jan-17 20:43 40.703868 -112.094462 90 11649ft 321kts
31-Jan-17 20:44 40.702888 -111.979620 74 10986ft 311kts
31-Jan-17 20:45 40.766217 -111.929788 349 11020ft 275kts
31-Jan-17 20:46 40.843253 -111.932795 351 10997ft 276kts
31-Jan-17 20:47 40.919847 -111.936072 351 9957ft 278kts
31-Jan-17 20:48 40.993737 -111.944406 351 9006ft 267kts
31-Jan-17 20:49 41.059255 -111.955642 333 8945ft 242kts
31-Jan-17 20:50 41.063091 -112.024151 210 8958ft 230kts
31-Jan-17 20:51 40.999167 -112.021794 176 8807ft 230kts
31-Jan-17 20:52 40.933149 -112.013766 176 7028ft 237kts
31-Jan-17 20:53 40.870547 -112.006502 175 5918ft 207kts
31-Jan-17 20:54 40.813020 -111.999844 176 4396ft 190kts
31-Jan-17 20:55 40.781847 -111.995776 135 4241ft 35kts
31-Jan-17 20:56 40.781189 -111.994731 122 4240ft 0kts
31-Jan-17 20:57 40.781188 -111.994729 122 4240ft 0kts
31-Jan-17 20:58 40.783933 -111.994412 355 4240ft 16kts
31-Jan-17 20:59 40.786726 -111.994710 355 4240ft 6kts
31-Jan-17 21:00 40.789773 -111.995032 355 4240ft 16kts
31-Jan-17 21:01 40.791176 -111.991552 84 4240ft 14kts
31-Jan-17 21:02 40.791495 -111.987018 84 4240ft 0kts
31-Jan-17 21:03 40.790279 -111.984863 137 4240ft 11kts
31-Jan-17 21:04 40.788362 -111.983403 221 4240ft 2kts
31-Jan-17 21:05 40.788183 -111.983972 252 4240ft 0kts
31-Jan-17 21:06 40.788183 -111.983972 252 4240ft 0kts
31-Jan-17 21:07 40.788183 -111.983972 252 4240ft 0kts
31-Jan-17 21:08 40.788183 -111.983972 252 4240ft 0kts
31-Jan-17 21:09 40.788183 -111.983972 252 4240ft 0kts

Navigation Log

Ident Type
1. PHNL Airport
2. VESPA Fix
3. FOT Navaid
4. LLC Navaid
5. BVL Navaid
6. KNOLE Fix
7. WAATS Fix
8. KSLC Airport